sensor_id;sensor_type;location;lat;lon;timestamp;temperature;humidity
21169;DHT22;10742;51.816;8.662;2023-02-08T00:01:53;2.30;87.70
21169;DHT22;10742;51.816;8.662;2023-02-08T00:04:56;2.40;87.80
21169;DHT22;10742;51.816;8.662;2023-02-08T00:07:58;2.30;87.80
21169;DHT22;10742;51.816;8.662;2023-02-08T00:11:00;2.30;87.80
21169;DHT22;10742;51.816;8.662;2023-02-08T00:14:03;2.40;87.90
21169;DHT22;10742;51.816;8.662;2023-02-08T00:17:05;2.40;87.90
21169;DHT22;10742;51.816;8.662;2023-02-08T00:20:08;2.30;87.90
21169;DHT22;10742;51.816;8.662;2023-02-08T00:23:11;2.40;88.00
21169;DHT22;10742;51.816;8.662;2023-02-08T00:26:14;2.40;87.90
21169;DHT22;10742;51.816;8.662;2023-02-08T00:29:17;2.40;87.90
21169;DHT22;10742;51.816;8.662;2023-02-08T00:32:19;2.40;88.00
21169;DHT22;10742;51.816;8.662;2023-02-08T00:35:22;2.40;87.90
21169;DHT22;10742;51.816;8.662;2023-02-08T00:38:24;2.40;87.90
21169;DHT22;10742;51.816;8.662;2023-02-08T00:41:26;2.40;87.90
21169;DHT22;10742;51.816;8.662;2023-02-08T00:44:29;2.40;87.90
21169;DHT22;10742;51.816;8.662;2023-02-08T00:47:31;2.40;87.80
21169;DHT22;10742;51.816;8.662;2023-02-08T00:50:34;2.40;87.80
21169;DHT22;10742;51.816;8.662;2023-02-08T00:53:39;2.30;87.70
21169;DHT22;10742;51.816;8.662;2023-02-08T00:56:42;2.40;87.60
21169;DHT22;10742;51.816;8.662;2023-02-08T00:59:44;2.30;87.50
21169;DHT22;10742;51.816;8.662;2023-02-08T01:02:46;2.30;87.50
21169;DHT22;10742;51.816;8.662;2023-02-08T01:05:49;2.30;87.50
21169;DHT22;10742;51.816;8.662;2023-02-08T01:08:51;2.20;87.40
21169;DHT22;10742;51.816;8.662;2023-02-08T01:11:53;2.20;87.50
21169;DHT22;10742;51.816;8.662;2023-02-08T01:14:56;2.10;87.60
21169;DHT22;10742;51.816;8.662;2023-02-08T01:17:58;2.10;87.80
21169;DHT22;10742;51.816;8.662;2023-02-08T01:21:22;2.00;87.80
21169;DHT22;10742;51.816;8.662;2023-02-08T01:24:24;2.00;88.20
21169;DHT22;10742;51.816;8.662;2023-02-08T01:27:27;2.00;88.10
21169;DHT22;10742;51.816;8.662;2023-02-08T01:30:29;1.90;88.20
21169;DHT22;10742;51.816;8.662;2023-02-08T01:33:32;2.00;88.20
21169;DHT22;10742;51.816;8.662;2023-02-08T01:36:35;2.00;88.20
21169;DHT22;10742;51.816;8.662;2023-02-08T01:39:37;2.00;88.00
21169;DHT22;10742;51.816;8.662;2023-02-08T01:42:39;1.90;87.90
21169;DHT22;10742;51.816;8.662;2023-02-08T01:45:41;1.90;87.80
21169;DHT22;10742;51.816;8.662;2023-02-08T01:48:45;1.80;87.80
21169;DHT22;10742;51.816;8.662;2023-02-08T01:52:13;1.80;87.90
21169;DHT22;10742;51.816;8.662;2023-02-08T01:55:22;1.70;88.10
21169;DHT22;10742;51.816;8.662;2023-02-08T01:58:27;1.70;88.00
21169;DHT22;10742;51.816;8.662;2023-02-08T02:01:33;1.60;88.10
21169;DHT22;10742;51.816;8.662;2023-02-08T02:04:35;1.60;88.10
21169;DHT22;10742;51.816;8.662;2023-02-08T02:07:38;1.60;88.20
21169;DHT22;10742;51.816;8.662;2023-02-08T02:10:42;1.60;88.50
21169;DHT22;10742;51.816;8.662;2023-02-08T02:13:46;1.50;88.60
21169;DHT22;10742;51.816;8.662;2023-02-08T02:16:49;1.50;88.60
21169;DHT22;10742;51.816;8.662;2023-02-08T02:27:03;1.50;89.00
21169;DHT22;10742;51.816;8.662;2023-02-08T02:40:46;1.60;88.80
21169;DHT22;10742;51.816;8.662;2023-02-08T02:43:54;1.60;88.70
21169;DHT22;10742;51.816;8.662;2023-02-08T02:47:16;1.50;88.50
21169;DHT22;10742;51.816;8.662;2023-02-08T02:57:02;1.50;88.50
21169;DHT22;10742;51.816;8.662;2023-02-08T03:00:10;1.40;88.30
21169;DHT22;10742;51.816;8.662;2023-02-08T03:03:23;1.40;88.40
21169;DHT22;10742;51.816;8.662;2023-02-08T03:09:51;1.40;88.50
21169;DHT22;10742;51.816;8.662;2023-02-08T03:16:38;1.30;88.70
21169;DHT22;10742;51.816;8.662;2023-02-08T03:26:14;1.30;88.80
21169;DHT22;10742;51.816;8.662;2023-02-08T03:32:49;1.40;88.90
21169;DHT22;10742;51.816;8.662;2023-02-08T03:35:58;1.40;88.80
21169;DHT22;10742;51.816;8.662;2023-02-08T03:39:09;1.50;88.80
21169;DHT22;10742;51.816;8.662;2023-02-08T03:42:18;1.50;88.80
21169;DHT22;10742;51.816;8.662;2023-02-08T03:45:25;1.50;88.80
21169;DHT22;10742;51.816;8.662;2023-02-08T03:48:32;1.50;88.70
21169;DHT22;10742;51.816;8.662;2023-02-08T03:51:36;1.60;88.60
21169;DHT22;10742;51.816;8.662;2023-02-08T03:54:53;1.60;88.50
21169;DHT22;10742;51.816;8.662;2023-02-08T04:01:11;1.60;88.40
21169;DHT22;10742;51.816;8.662;2023-02-08T04:04:16;1.50;88.40
21169;DHT22;10742;51.816;8.662;2023-02-08T04:07:19;1.60;88.50
21169;DHT22;10742;51.816;8.662;2023-02-08T04:10:22;1.60;88.50
21169;DHT22;10742;51.816;8.662;2023-02-08T04:13:24;1.60;88.50
21169;DHT22;10742;51.816;8.662;2023-02-08T04:16:27;1.50;88.40
21169;DHT22;10742;51.816;8.662;2023-02-08T04:19:29;1.60;88.40
21169;DHT22;10742;51.816;8.662;2023-02-08T04:22:31;1.60;88.30
21169;DHT22;10742;51.816;8.662;2023-02-08T04:25:34;1.60;88.30
21169;DHT22;10742;51.816;8.662;2023-02-08T04:28:36;1.60;88.20
21169;DHT22;10742;51.816;8.662;2023-02-08T04:31:39;1.60;88.20
21169;DHT22;10742;51.816;8.662;2023-02-08T04:34:41;1.60;88.10
21169;DHT22;10742;51.816;8.662;2023-02-08T04:37:43;1.60;88.00
21169;DHT22;10742;51.816;8.662;2023-02-08T04:40:46;1.50;87.90
21169;DHT22;10742;51.816;8.662;2023-02-08T04:43:48;1.60;87.90
21169;DHT22;10742;51.816;8.662;2023-02-08T04:46:50;1.50;87.90
21169;DHT22;10742;51.816;8.662;2023-02-08T04:49:52;1.50;87.90
21169;DHT22;10742;51.816;8.662;2023-02-08T04:52:55;1.40;87.90
21169;DHT22;10742;51.816;8.662;2023-02-08T04:55:57;1.40;87.90
21169;DHT22;10742;51.816;8.662;2023-02-08T04:58:59;1.50;88.00
21169;DHT22;10742;51.816;8.662;2023-02-08T05:02:02;1.50;87.90
21169;DHT22;10742;51.816;8.662;2023-02-08T05:05:04;1.40;87.90
21169;DHT22;10742;51.816;8.662;2023-02-08T05:08:07;1.40;87.90
21169;DHT22;10742;51.816;8.662;2023-02-08T05:11:09;1.40;87.90
21169;DHT22;10742;51.816;8.662;2023-02-08T05:14:12;1.40;87.80
21169;DHT22;10742;51.816;8.662;2023-02-08T05:17:14;1.40;87.80
21169;DHT22;10742;51.816;8.662;2023-02-08T05:20:16;1.30;87.70
21169;DHT22;10742;51.816;8.662;2023-02-08T05:23:19;1.30;87.70
21169;DHT22;10742;51.816;8.662;2023-02-08T05:26:21;1.30;87.60
21169;DHT22;10742;51.816;8.662;2023-02-08T05:29:23;1.20;87.50
21169;DHT22;10742;51.816;8.662;2023-02-08T05:32:26;1.10;87.40
21169;DHT22;10742;51.816;8.662;2023-02-08T05:35:28;1.10;88.20
21169;DHT22;10742;51.816;8.662;2023-02-08T05:38:30;1.00;87.50
21169;DHT22;10742;51.816;8.662;2023-02-08T05:41:33;1.00;87.60
21169;DHT22;10742;51.816;8.662;2023-02-08T05:44:35;0.90;87.60
21169;DHT22;10742;51.816;8.662;2023-02-08T05:47:37;0.90;87.70
21169;DHT22;10742;51.816;8.662;2023-02-08T05:50:40;0.80;87.70
21169;DHT22;10742;51.816;8.662;2023-02-08T05:53:43;0.80;87.80
21169;DHT22;10742;51.816;8.662;2023-02-08T05:56:46;0.80;87.90
21169;DHT22;10742;51.816;8.662;2023-02-08T05:59:49;0.70;88.10
21169;DHT22;10742;51.816;8.662;2023-02-08T06:02:51;0.70;88.20
21169;DHT22;10742;51.816;8.662;2023-02-08T06:05:53;0.50;89.80
21169;DHT22;10742;51.816;8.662;2023-02-08T06:08:56;0.50;89.90
21169;DHT22;10742;51.816;8.662;2023-02-08T06:11:58;0.60;89.60
21169;DHT22;10742;51.816;8.662;2023-02-08T06:15:00;0.70;89.20
21169;DHT22;10742;51.816;8.662;2023-02-08T06:18:03;0.70;88.80
21169;DHT22;10742;51.816;8.662;2023-02-08T06:21:05;0.70;88.50
21169;DHT22;10742;51.816;8.662;2023-02-08T06:24:07;0.70;88.30
21169;DHT22;10742;51.816;8.662;2023-02-08T06:27:11;0.70;88.10
21169;DHT22;10742;51.816;8.662;2023-02-08T06:30:14;0.60;88.00
21169;DHT22;10742;51.816;8.662;2023-02-08T06:33:17;0.60;88.00
21169;DHT22;10742;51.816;8.662;2023-02-08T06:36:20;0.60;88.10
21169;DHT22;10742;51.816;8.662;2023-02-08T06:39:22;0.50;88.20
21169;DHT22;10742;51.816;8.662;2023-02-08T06:42:24;0.50;88.50
21169;DHT22;10742;51.816;8.662;2023-02-08T06:45:27;0.50;88.60
21169;DHT22;10742;51.816;8.662;2023-02-08T06:48:30;0.40;88.50
21169;DHT22;10742;51.816;8.662;2023-02-08T06:51:32;0.50;88.50
21169;DHT22;10742;51.816;8.662;2023-02-08T06:54:35;0.50;88.50
21169;DHT22;10742;51.816;8.662;2023-02-08T06:57:37;0.50;88.40
21169;DHT22;10742;51.816;8.662;2023-02-08T07:00:39;0.40;88.40
21169;DHT22;10742;51.816;8.662;2023-02-08T07:03:43;0.40;88.50
21169;DHT22;10742;51.816;8.662;2023-02-08T07:06:48;0.50;88.60
21169;DHT22;10742;51.816;8.662;2023-02-08T07:09:50;0.50;88.80
21169;DHT22;10742;51.816;8.662;2023-02-08T07:12:53;0.50;88.70
21169;DHT22;10742;51.816;8.662;2023-02-08T07:15:55;0.50;88.70
21169;DHT22;10742;51.816;8.662;2023-02-08T07:18:58;0.50;88.70
21169;DHT22;10742;51.816;8.662;2023-02-08T07:22:00;0.60;88.70
21169;DHT22;10742;51.816;8.662;2023-02-08T07:25:09;0.60;88.70
21169;DHT22;10742;51.816;8.662;2023-02-08T07:28:11;0.60;88.70
21169;DHT22;10742;51.816;8.662;2023-02-08T07:31:15;0.60;88.50
21169;DHT22;10742;51.816;8.662;2023-02-08T07:34:17;0.60;88.50
21169;DHT22;10742;51.816;8.662;2023-02-08T07:37:24;0.70;88.40
21169;DHT22;10742;51.816;8.662;2023-02-08T07:40:26;0.70;88.50
21169;DHT22;10742;51.816;8.662;2023-02-08T07:43:30;0.70;88.70
21169;DHT22;10742;51.816;8.662;2023-02-08T07:46:34;0.70;88.80
21169;DHT22;10742;51.816;8.662;2023-02-08T07:49:37;0.70;89.10
21169;DHT22;10742;51.816;8.662;2023-02-08T07:52:39;0.80;89.70
21169;DHT22;10742;51.816;8.662;2023-02-08T07:55:45;0.90;90.60
21169;DHT22;10742;51.816;8.662;2023-02-08T07:58:47;1.00;90.50
21169;DHT22;10742;51.816;8.662;2023-02-08T08:01:50;1.10;90.40
21169;DHT22;10742;51.816;8.662;2023-02-08T08:04:52;1.30;90.40
21169;DHT22;10742;51.816;8.662;2023-02-08T08:07:55;1.40;90.40
21169;DHT22;10742;51.816;8.662;2023-02-08T08:10:57;1.60;90.40
21169;DHT22;10742;51.816;8.662;2023-02-08T08:14:00;1.80;90.50
21169;DHT22;10742;51.816;8.662;2023-02-08T08:17:02;1.90;90.50
21169;DHT22;10742;51.816;8.662;2023-02-08T08:20:05;2.10;90.40
21169;DHT22;10742;51.816;8.662;2023-02-08T08:23:07;2.30;90.40
21169;DHT22;10742;51.816;8.662;2023-02-08T08:26:16;2.50;90.40
21169;DHT22;10742;51.816;8.662;2023-02-08T08:29:18;2.70;90.30
21169;DHT22;10742;51.816;8.662;2023-02-08T08:32:21;2.90;90.30
21169;DHT22;10742;51.816;8.662;2023-02-08T08:35:23;3.10;90.30
21169;DHT22;10742;51.816;8.662;2023-02-08T08:38:25;3.20;90.20
21169;DHT22;10742;51.816;8.662;2023-02-08T08:41:28;3.40;90.00
21169;DHT22;10742;51.816;8.662;2023-02-08T08:44:30;3.60;90.00
21169;DHT22;10742;51.816;8.662;2023-02-08T08:47:32;3.80;89.80
21169;DHT22;10742;51.816;8.662;2023-02-08T08:50:35;4.00;89.40
21169;DHT22;10742;51.816;8.662;2023-02-08T08:53:37;4.10;89.10
21169;DHT22;10742;51.816;8.662;2023-02-08T08:56:40;4.30;88.90
21169;DHT22;10742;51.816;8.662;2023-02-08T08:59:42;4.50;88.70
21169;DHT22;10742;51.816;8.662;2023-02-08T09:02:44;4.60;88.40
21169;DHT22;10742;51.816;8.662;2023-02-08T09:05:46;4.80;88.10
21169;DHT22;10742;51.816;8.662;2023-02-08T09:08:49;5.00;87.80
21169;DHT22;10742;51.816;8.662;2023-02-08T09:11:52;5.20;87.20
21169;DHT22;10742;51.816;8.662;2023-02-08T09:14:55;5.30;86.80
21169;DHT22;10742;51.816;8.662;2023-02-08T09:17:57;5.50;86.70
21169;DHT22;10742;51.816;8.662;2023-02-08T09:21:05;5.70;86.50
21169;DHT22;10742;51.816;8.662;2023-02-08T09:24:08;5.80;85.40
21169;DHT22;10742;51.816;8.662;2023-02-08T09:27:11;6.00;85.70
21169;DHT22;10742;51.816;8.662;2023-02-08T09:30:13;6.20;85.40
21169;DHT22;10742;51.816;8.662;2023-02-08T09:33:16;6.40;85.20
21169;DHT22;10742;51.816;8.662;2023-02-08T09:36:18;6.50;84.80
21169;DHT22;10742;51.816;8.662;2023-02-08T09:39:23;6.70;84.50
21169;DHT22;10742;51.816;8.662;2023-02-08T09:42:41;6.90;83.80
21169;DHT22;10742;51.816;8.662;2023-02-08T09:45:58;7.10;82.00
21169;DHT22;10742;51.816;8.662;2023-02-08T09:49:03;7.30;81.20
21169;DHT22;10742;51.816;8.662;2023-02-08T09:52:10;7.50;82.60
21169;DHT22;10742;51.816;8.662;2023-02-08T09:55:28;7.60;81.60
21169;DHT22;10742;51.816;8.662;2023-02-08T09:58:51;7.80;80.00
21169;DHT22;10742;51.816;8.662;2023-02-08T10:02:16;8.00;79.70
21169;DHT22;10742;51.816;8.662;2023-02-08T10:05:24;8.20;78.90
21169;DHT22;10742;51.816;8.662;2023-02-08T10:08:28;8.40;79.90
21169;DHT22;10742;51.816;8.662;2023-02-08T10:14:59;8.70;79.60
21169;DHT22;10742;51.816;8.662;2023-02-08T10:22:06;9.00;75.70
21169;DHT22;10742;51.816;8.662;2023-02-08T10:25:32;9.20;74.70
21169;DHT22;10742;51.816;8.662;2023-02-08T10:28:54;9.30;74.90
21169;DHT22;10742;51.816;8.662;2023-02-08T10:32:17;9.50;74.30
21169;DHT22;10742;51.816;8.662;2023-02-08T10:35:34;9.60;73.40
21169;DHT22;10742;51.816;8.662;2023-02-08T10:38:40;9.70;73.20
21169;DHT22;10742;51.816;8.662;2023-02-08T10:41:48;9.80;74.80
21169;DHT22;10742;51.816;8.662;2023-02-08T10:45:02;9.90;74.10
21169;DHT22;10742;51.816;8.662;2023-02-08T10:48:19;10.00;71.60
21169;DHT22;10742;51.816;8.662;2023-02-08T10:51:24;10.20;72.50
21169;DHT22;10742;51.816;8.662;2023-02-08T10:54:27;10.30;72.90
21169;DHT22;10742;51.816;8.662;2023-02-08T10:57:34;10.40;72.00
21169;DHT22;10742;51.816;8.662;2023-02-08T11:00:37;10.50;69.00
21169;DHT22;10742;51.816;8.662;2023-02-08T11:04:10;10.60;70.30
21169;DHT22;10742;51.816;8.662;2023-02-08T11:07:19;10.70;66.70
21169;DHT22;10742;51.816;8.662;2023-02-08T11:10:24;10.80;67.50
21169;DHT22;10742;51.816;8.662;2023-02-08T11:13:39;11.00;68.80
21169;DHT22;10742;51.816;8.662;2023-02-08T11:16:51;11.00;66.30
21169;DHT22;10742;51.816;8.662;2023-02-08T11:19:55;11.10;65.50
21169;DHT22;10742;51.816;8.662;2023-02-08T11:22:59;11.20;66.70
21169;DHT22;10742;51.816;8.662;2023-02-08T11:26:16;11.20;66.40
21169;DHT22;10742;51.816;8.662;2023-02-08T11:29:26;11.30;62.80
21169;DHT22;10742;51.816;8.662;2023-02-08T11:32:30;11.40;65.40
21169;DHT22;10742;51.816;8.662;2023-02-08T11:35:34;11.40;65.10
21169;DHT22;10742;51.816;8.662;2023-02-08T11:38:41;11.50;64.60
21169;DHT22;10742;51.816;8.662;2023-02-08T11:41:45;11.60;63.00
21169;DHT22;10742;51.816;8.662;2023-02-08T11:44:48;11.60;63.00
21169;DHT22;10742;51.816;8.662;2023-02-08T11:47:52;11.70;62.60
21169;DHT22;10742;51.816;8.662;2023-02-08T11:50:58;11.70;62.30
21169;DHT22;10742;51.816;8.662;2023-02-08T11:54:02;11.70;60.70
21169;DHT22;10742;51.816;8.662;2023-02-08T11:57:23;11.80;61.20
21169;DHT22;10742;51.816;8.662;2023-02-08T12:00:32;11.80;58.30
21169;DHT22;10742;51.816;8.662;2023-02-08T12:03:38;11.90;59.50
21169;DHT22;10742;51.816;8.662;2023-02-08T12:07:15;11.90;59.50
21169;DHT22;10742;51.816;8.662;2023-02-08T12:11:02;11.90;57.60
21169;DHT22;10742;51.816;8.662;2023-02-08T12:14:34;11.90;57.10
21169;DHT22;10742;51.816;8.662;2023-02-08T12:21:29;12.00;57.30
21169;DHT22;10742;51.816;8.662;2023-02-08T12:24:46;12.00;57.70
21169;DHT22;10742;51.816;8.662;2023-02-08T12:28:02;12.10;58.10
21169;DHT22;10742;51.816;8.662;2023-02-08T12:45:03;12.20;56.70
21169;DHT22;10742;51.816;8.662;2023-02-08T12:48:35;12.30;57.10
21169;DHT22;10742;51.816;8.662;2023-02-08T12:51:47;12.30;56.50
21169;DHT22;10742;51.816;8.662;2023-02-08T12:55:12;12.30;58.30
21169;DHT22;10742;51.816;8.662;2023-02-08T12:58:21;12.30;56.30
21169;DHT22;10742;51.816;8.662;2023-02-08T13:01:39;12.30;57.30
21169;DHT22;10742;51.816;8.662;2023-02-08T13:04:46;12.30;56.40
21169;DHT22;10742;51.816;8.662;2023-02-08T13:08:07;12.40;56.80
21169;DHT22;10742;51.816;8.662;2023-02-08T13:11:29;12.30;56.10
21169;DHT22;10742;51.816;8.662;2023-02-08T13:14:52;12.30;56.40
21169;DHT22;10742;51.816;8.662;2023-02-08T13:18:03;12.20;55.50
21169;DHT22;10742;51.816;8.662;2023-02-08T13:21:15;12.20;56.10
21169;DHT22;10742;51.816;8.662;2023-02-08T13:27:27;12.20;55.70
21169;DHT22;10742;51.816;8.662;2023-02-08T13:30:31;12.20;57.00
21169;DHT22;10742;51.816;8.662;2023-02-08T13:33:50;12.20;56.70
21169;DHT22;10742;51.816;8.662;2023-02-08T13:37:05;12.10;55.30
21169;DHT22;10742;51.816;8.662;2023-02-08T13:40:29;12.10;56.00
21169;DHT22;10742;51.816;8.662;2023-02-08T13:43:39;12.10;56.20
21169;DHT22;10742;51.816;8.662;2023-02-08T13:46:47;12.10;55.20
21169;DHT22;10742;51.816;8.662;2023-02-08T13:50:02;12.10;56.10
21169;DHT22;10742;51.816;8.662;2023-02-08T13:53:08;12.00;55.10
21169;DHT22;10742;51.816;8.662;2023-02-08T13:56:12;12.00;56.40
21169;DHT22;10742;51.816;8.662;2023-02-08T13:59:38;11.90;56.10
21169;DHT22;10742;51.816;8.662;2023-02-08T14:03:19;11.90;54.90
21169;DHT22;10742;51.816;8.662;2023-02-08T14:06:24;11.80;54.90
21169;DHT22;10742;51.816;8.662;2023-02-08T14:09:59;11.80;55.50
21169;DHT22;10742;51.816;8.662;2023-02-08T14:13:26;11.70;54.80
21169;DHT22;10742;51.816;8.662;2023-02-08T14:16:33;11.70;54.40
21169;DHT22;10742;51.816;8.662;2023-02-08T14:19:42;11.60;55.80
21169;DHT22;10742;51.816;8.662;2023-02-08T14:22:52;11.50;55.40
21169;DHT22;10742;51.816;8.662;2023-02-08T14:25:56;11.50;55.10
21169;DHT22;10742;51.816;8.662;2023-02-08T14:29:02;11.40;55.70
21169;DHT22;10742;51.816;8.662;2023-02-08T14:32:05;11.40;55.70
21169;DHT22;10742;51.816;8.662;2023-02-08T14:44:44;11.30;55.10
21169;DHT22;10742;51.816;8.662;2023-02-08T14:47:51;11.30;56.20
21169;DHT22;10742;51.816;8.662;2023-02-08T14:54:47;11.20;55.30
21169;DHT22;10742;51.816;8.662;2023-02-08T14:57:56;11.10;55.10
21169;DHT22;10742;51.816;8.662;2023-02-08T15:01:07;11.10;56.20
21169;DHT22;10742;51.816;8.662;2023-02-08T15:04:14;11.10;55.90
21169;DHT22;10742;51.816;8.662;2023-02-08T15:10:30;11.00;56.10
21169;DHT22;10742;51.816;8.662;2023-02-08T15:13:33;11.00;56.50
21169;DHT22;10742;51.816;8.662;2023-02-08T15:16:41;10.90;56.80
21169;DHT22;10742;51.816;8.662;2023-02-08T15:19:45;10.90;56.30
21169;DHT22;10742;51.816;8.662;2023-02-08T15:22:55;10.90;56.60
21169;DHT22;10742;51.816;8.662;2023-02-08T15:26:01;10.80;56.80
21169;DHT22;10742;51.816;8.662;2023-02-08T15:29:19;10.70;56.60
21169;DHT22;10742;51.816;8.662;2023-02-08T15:32:24;10.70;56.50
21169;DHT22;10742;51.816;8.662;2023-02-08T15:35:27;10.60;57.20
21169;DHT22;10742;51.816;8.662;2023-02-08T15:38:34;10.60;57.40
21169;DHT22;10742;51.816;8.662;2023-02-08T15:41:38;10.60;57.30
21169;DHT22;10742;51.816;8.662;2023-02-08T15:44:42;10.50;57.50
21169;DHT22;10742;51.816;8.662;2023-02-08T15:47:45;10.50;57.50
21169;DHT22;10742;51.816;8.662;2023-02-08T15:50:49;10.40;57.70
21169;DHT22;10742;51.816;8.662;2023-02-08T15:53:53;10.40;57.70
21169;DHT22;10742;51.816;8.662;2023-02-08T15:57:01;10.30;57.80
21169;DHT22;10742;51.816;8.662;2023-02-08T16:00:18;10.20;57.50
21169;DHT22;10742;51.816;8.662;2023-02-08T16:03:22;10.20;57.40
21169;DHT22;10742;51.816;8.662;2023-02-08T16:06:28;10.10;57.80
21169;DHT22;10742;51.816;8.662;2023-02-08T16:09:33;10.00;57.70
21169;DHT22;10742;51.816;8.662;2023-02-08T16:12:36;10.00;58.10
21169;DHT22;10742;51.816;8.662;2023-02-08T16:18:44;9.80;57.90
21169;DHT22;10742;51.816;8.662;2023-02-08T16:21:47;9.80;58.10
21169;DHT22;10742;51.816;8.662;2023-02-08T16:24:50;9.70;58.30
21169;DHT22;10742;51.816;8.662;2023-02-08T16:27:53;9.60;58.40
21169;DHT22;10742;51.816;8.662;2023-02-08T16:30:58;9.50;58.40
21169;DHT22;10742;51.816;8.662;2023-02-08T16:34:06;9.50;58.30
21169;DHT22;10742;51.816;8.662;2023-02-08T16:37:27;9.40;58.50
21169;DHT22;10742;51.816;8.662;2023-02-08T16:40:53;9.30;58.20
21169;DHT22;10742;51.816;8.662;2023-02-08T16:44:15;9.20;58.20
21169;DHT22;10742;51.816;8.662;2023-02-08T16:47:33;9.10;58.40
21169;DHT22;10742;51.816;8.662;2023-02-08T16:50:37;9.00;58.90
21169;DHT22;10742;51.816;8.662;2023-02-08T16:53:40;9.00;59.00
21169;DHT22;10742;51.816;8.662;2023-02-08T16:56:44;8.90;59.10
21169;DHT22;10742;51.816;8.662;2023-02-08T16:59:47;8.90;59.30
21169;DHT22;10742;51.816;8.662;2023-02-08T17:02:50;8.80;59.40
21169;DHT22;10742;51.816;8.662;2023-02-08T17:05:53;8.70;59.40
21169;DHT22;10742;51.816;8.662;2023-02-08T17:08:56;8.60;59.60
21169;DHT22;10742;51.816;8.662;2023-02-08T17:12:00;8.60;59.60
21169;DHT22;10742;51.816;8.662;2023-02-08T17:15:02;8.50;59.70
21169;DHT22;10742;51.816;8.662;2023-02-08T17:18:05;8.40;59.80
21169;DHT22;10742;51.816;8.662;2023-02-08T17:21:08;8.40;59.90
21169;DHT22;10742;51.816;8.662;2023-02-08T17:24:10;8.30;60.00
21169;DHT22;10742;51.816;8.662;2023-02-08T17:27:13;8.20;60.10
21169;DHT22;10742;51.816;8.662;2023-02-08T17:30:28;8.10;60.20
21169;DHT22;10742;51.816;8.662;2023-02-08T17:33:31;8.10;60.00
21169;DHT22;10742;51.816;8.662;2023-02-08T17:36:37;8.00;60.30
21169;DHT22;10742;51.816;8.662;2023-02-08T17:39:42;8.00;60.50
21169;DHT22;10742;51.816;8.662;2023-02-08T17:42:45;7.90;60.60
21169;DHT22;10742;51.816;8.662;2023-02-08T17:45:48;7.80;60.80
21169;DHT22;10742;51.816;8.662;2023-02-08T17:48:52;7.80;60.80
21169;DHT22;10742;51.816;8.662;2023-02-08T17:51:56;7.70;60.80
21169;DHT22;10742;51.816;8.662;2023-02-08T17:54:58;7.70;60.90
21169;DHT22;10742;51.816;8.662;2023-02-08T17:58:01;7.60;60.90
21169;DHT22;10742;51.816;8.662;2023-02-08T18:01:04;7.60;61.10
21169;DHT22;10742;51.816;8.662;2023-02-08T18:04:06;7.50;61.10
21169;DHT22;10742;51.816;8.662;2023-02-08T18:07:12;7.40;61.10
21169;DHT22;10742;51.816;8.662;2023-02-08T18:10:14;7.40;61.20
21169;DHT22;10742;51.816;8.662;2023-02-08T18:13:17;7.40;61.20
21169;DHT22;10742;51.816;8.662;2023-02-08T18:16:23;7.30;61.20
21169;DHT22;10742;51.816;8.662;2023-02-08T18:19:26;7.30;61.20
21169;DHT22;10742;51.816;8.662;2023-02-08T18:22:28;7.20;61.40
21169;DHT22;10742;51.816;8.662;2023-02-08T18:25:31;7.20;61.40
21169;DHT22;10742;51.816;8.662;2023-02-08T18:28:33;7.10;61.40
21169;DHT22;10742;51.816;8.662;2023-02-08T18:31:36;7.10;61.40
21169;DHT22;10742;51.816;8.662;2023-02-08T18:34:38;7.00;61.40
21169;DHT22;10742;51.816;8.662;2023-02-08T18:37:43;7.00;61.50
21169;DHT22;10742;51.816;8.662;2023-02-08T18:40:53;6.90;61.50
21169;DHT22;10742;51.816;8.662;2023-02-08T18:43:57;6.90;61.50
21169;DHT22;10742;51.816;8.662;2023-02-08T18:46:59;6.90;61.60
21169;DHT22;10742;51.816;8.662;2023-02-08T18:50:02;6.80;61.70
21169;DHT22;10742;51.816;8.662;2023-02-08T18:53:05;6.80;61.70
21169;DHT22;10742;51.816;8.662;2023-02-08T18:56:09;6.80;61.70
21169;DHT22;10742;51.816;8.662;2023-02-08T18:59:12;6.70;61.70
21169;DHT22;10742;51.816;8.662;2023-02-08T19:02:18;6.70;61.70
21169;DHT22;10742;51.816;8.662;2023-02-08T19:05:20;6.70;61.70
21169;DHT22;10742;51.816;8.662;2023-02-08T19:08:23;6.60;61.90
21169;DHT22;10742;51.816;8.662;2023-02-08T19:11:28;6.60;62.00
21169;DHT22;10742;51.816;8.662;2023-02-08T19:14:30;6.50;62.10
21169;DHT22;10742;51.816;8.662;2023-02-08T19:17:33;6.50;62.30
21169;DHT22;10742;51.816;8.662;2023-02-08T19:20:37;6.50;62.30
21169;DHT22;10742;51.816;8.662;2023-02-08T19:23:40;6.40;62.40
21169;DHT22;10742;51.816;8.662;2023-02-08T19:26:42;6.40;62.50
21169;DHT22;10742;51.816;8.662;2023-02-08T19:29:45;6.30;62.50
21169;DHT22;10742;51.816;8.662;2023-02-08T19:32:47;6.30;62.50
21169;DHT22;10742;51.816;8.662;2023-02-08T19:35:49;6.20;62.50
21169;DHT22;10742;51.816;8.662;2023-02-08T19:38:53;6.20;62.60
21169;DHT22;10742;51.816;8.662;2023-02-08T19:41:58;6.10;62.60
21169;DHT22;10742;51.816;8.662;2023-02-08T19:45:02;6.10;62.70
21169;DHT22;10742;51.816;8.662;2023-02-08T19:48:04;6.00;62.90
21169;DHT22;10742;51.816;8.662;2023-02-08T19:51:07;6.00;63.00
21169;DHT22;10742;51.816;8.662;2023-02-08T19:54:12;6.00;63.20
21169;DHT22;10742;51.816;8.662;2023-02-08T19:57:16;5.90;63.10
21169;DHT22;10742;51.816;8.662;2023-02-08T20:00:18;5.90;63.20
21169;DHT22;10742;51.816;8.662;2023-02-08T20:03:25;5.90;63.30
21169;DHT22;10742;51.816;8.662;2023-02-08T20:06:31;5.90;63.20
21169;DHT22;10742;51.816;8.662;2023-02-08T20:09:34;5.90;63.20
21169;DHT22;10742;51.816;8.662;2023-02-08T20:12:37;5.80;63.30
21169;DHT22;10742;51.816;8.662;2023-02-08T20:15:41;5.80;63.40
21169;DHT22;10742;51.816;8.662;2023-02-08T20:18:44;5.80;63.50
21169;DHT22;10742;51.816;8.662;2023-02-08T20:21:47;5.80;63.60
21169;DHT22;10742;51.816;8.662;2023-02-08T20:24:49;5.80;63.60
21169;DHT22;10742;51.816;8.662;2023-02-08T20:27:52;5.70;63.50
21169;DHT22;10742;51.816;8.662;2023-02-08T20:30:55;5.70;63.50
21169;DHT22;10742;51.816;8.662;2023-02-08T20:33:59;5.70;63.70
21169;DHT22;10742;51.816;8.662;2023-02-08T20:37:03;5.70;63.80
21169;DHT22;10742;51.816;8.662;2023-02-08T20:40:10;5.70;63.90
21169;DHT22;10742;51.816;8.662;2023-02-08T20:43:13;5.60;64.00
21169;DHT22;10742;51.816;8.662;2023-02-08T20:46:19;5.60;64.10
21169;DHT22;10742;51.816;8.662;2023-02-08T20:49:23;5.60;64.10
21169;DHT22;10742;51.816;8.662;2023-02-08T20:52:26;5.60;64.20
21169;DHT22;10742;51.816;8.662;2023-02-08T20:55:29;5.50;64.10
21169;DHT22;10742;51.816;8.662;2023-02-08T20:58:31;5.60;64.20
21169;DHT22;10742;51.816;8.662;2023-02-08T21:01:34;5.50;64.10
21169;DHT22;10742;51.816;8.662;2023-02-08T21:04:37;5.40;64.10
21169;DHT22;10742;51.816;8.662;2023-02-08T21:07:39;5.30;64.20
21169;DHT22;10742;51.816;8.662;2023-02-08T21:10:42;5.30;64.30
21169;DHT22;10742;51.816;8.662;2023-02-08T21:13:45;5.30;64.20
21169;DHT22;10742;51.816;8.662;2023-02-08T21:16:49;5.30;64.30
21169;DHT22;10742;51.816;8.662;2023-02-08T21:19:52;5.30;64.50
21169;DHT22;10742;51.816;8.662;2023-02-08T21:22:55;5.20;64.50